createdAt,value
2023-03-07T00:02:40.840Z,100.00
2023-03-07T00:07:35.774Z,100.00
2023-03-07T00:12:29.098Z,100.00
2023-03-07T00:17:22.540Z,100.00
2023-03-07T00:22:15.889Z,100.00
2023-03-07T00:27:10.674Z,100.00
2023-03-07T00:32:04.112Z,100.00
2023-03-07T00:36:57.553Z,100.00
2023-03-07T00:41:50.935Z,100.00
2023-03-07T00:46:45.668Z,100.00
2023-03-07T00:51:39.203Z,100.00
2023-03-07T00:56:32.530Z,100.00
2023-03-07T01:01:27.014Z,100.00
2023-03-07T01:06:25.267Z,100.00
2023-03-07T01:11:19.143Z,100.00
2023-03-07T01:16:16.589Z,100.00
2023-03-07T01:21:16.215Z,100.00
2023-03-07T01:26:14.486Z,100.00
2023-03-07T01:31:07.980Z,100.00
2023-03-07T01:36:01.606Z,100.00
2023-03-07T01:40:55.066Z,100.00
2023-03-07T01:46:48.766Z,100.00
2023-03-07T01:51:50.333Z,100.00
2023-03-07T01:56:46.557Z,100.00
2023-03-07T02:01:40.491Z,100.00
2023-03-07T02:06:38.441Z,100.00
2023-03-07T02:11:33.317Z,100.00
2023-03-07T02:16:27.135Z,100.00
2023-03-07T02:21:34.161Z,100.00
2023-03-07T02:26:44.223Z,100.00
2023-03-07T02:31:37.713Z,100.00
2023-03-07T02:36:36.116Z,100.00
2023-03-07T02:41:34.194Z,100.00
2023-03-07T02:46:28.896Z,100.00
2023-03-07T02:51:22.455Z,100.00
2023-03-07T02:56:15.997Z,100.00
2023-03-07T03:01:09.338Z,100.00
2023-03-07T03:06:04.121Z,100.00
2023-03-07T03:10:57.496Z,100.00
2023-03-07T03:15:51.690Z,100.00
2023-03-07T03:20:44.994Z,100.00
2023-03-07T03:25:40.260Z,100.00
2023-03-07T03:30:36.079Z,100.00
2023-03-07T03:35:29.720Z,100.00
2023-03-07T03:40:23.173Z,100.00
2023-03-07T03:45:18.376Z,100.00
2023-03-07T03:50:12.787Z,100.00
2023-03-07T03:55:07.179Z,100.00
2023-03-07T04:00:00.488Z,100.00
2023-03-07T04:04:55.142Z,100.00
2023-03-07T04:09:48.423Z,100.00
2023-03-07T04:14:41.698Z,100.00
2023-03-07T04:19:35.015Z,100.00
2023-03-07T04:24:29.990Z,100.00
2023-03-07T04:29:23.246Z,100.00
2023-03-07T04:34:16.585Z,100.00
2023-03-07T04:39:09.898Z,100.00
2023-03-07T04:44:04.668Z,100.00
2023-03-07T04:48:58.053Z,100.00
2023-03-07T04:53:51.457Z,100.00
2023-03-07T04:58:45.971Z,100.00
2023-03-07T05:03:40.685Z,100.00
2023-03-07T05:08:35.307Z,100.00
2023-03-07T05:13:28.964Z,100.00
2023-03-07T05:18:22.750Z,100.00
2023-03-07T05:23:18.334Z,100.00
2023-03-07T05:28:11.688Z,100.00
2023-03-07T05:33:05.342Z,100.00
2023-03-07T05:37:58.771Z,100.00
2023-03-07T05:42:53.380Z,100.00
2023-03-07T05:47:46.700Z,100.00
2023-03-07T05:52:40.434Z,100.00
2023-03-07T05:57:33.859Z,100.00
2023-03-07T06:02:28.589Z,100.00
2023-03-07T06:07:21.955Z,100.00
2023-03-07T06:12:15.258Z,100.00
2023-03-07T06:17:08.560Z,100.00
2023-03-07T06:22:03.241Z,100.00
2023-03-07T06:26:56.636Z,100.00
2023-03-07T06:31:51.105Z,100.00
2023-03-07T06:36:44.541Z,100.00
2023-03-07T06:41:39.222Z,100.00
2023-03-07T06:46:32.540Z,100.00
2023-03-07T06:51:25.956Z,100.00
2023-03-07T06:56:19.261Z,100.00
2023-03-07T07:01:19.494Z,100.00
2023-03-07T07:06:12.885Z,100.00
2023-03-07T07:11:06.809Z,100.00
2023-03-07T07:16:06.889Z,100.00
2023-03-07T07:21:01.794Z,100.00
2023-03-07T07:25:55.180Z,100.00
2023-03-07T07:30:48.479Z,100.00
2023-03-07T07:35:45.212Z,100.00
2023-03-07T07:40:40.305Z,100.00
2023-03-07T07:45:33.684Z,100.00
2023-03-07T07:50:27.172Z,100.00
2023-03-07T07:55:20.456Z,100.00
2023-03-07T08:00:21.174Z,100.00
2023-03-07T08:05:14.462Z,100.00
2023-03-07T08:10:10.105Z,100.00
2023-03-07T08:15:03.841Z,100.00
2023-03-07T08:20:01.679Z,100.00
2023-03-07T08:24:55.235Z,100.00
2023-03-07T08:29:51.151Z,100.00
2023-03-07T08:34:44.515Z,98.40
2023-03-07T08:39:39.300Z,94.21
2023-03-07T08:44:32.577Z,90.70
2023-03-07T08:49:25.995Z,86.87
2023-03-07T08:54:19.509Z,92.49
2023-03-07T08:59:14.176Z,94.61
2023-03-07T09:04:07.592Z,88.28
2023-03-07T09:09:01.000Z,84.90
2023-03-07T09:13:54.311Z,87.93
2023-03-07T09:18:49.048Z,85.99
2023-03-07T09:23:44.109Z,84.53
2023-03-07T09:28:37.397Z,84.55
2023-03-07T09:33:30.686Z,82.07
2023-03-07T09:38:25.379Z,82.10
2023-03-07T09:43:21.948Z,81.84
2023-03-07T09:49:05.074Z,82.04
2023-03-07T09:54:04.829Z,79.82
2023-03-07T09:59:20.445Z,82.91
2023-03-07T10:04:27.485Z,82.92
2023-03-07T10:09:25.954Z,79.20
2023-03-07T10:14:40.581Z,75.78
2023-03-07T10:19:45.962Z,73.74
2023-03-07T10:25:14.323Z,78.37
2023-03-07T10:30:17.964Z,73.19
2023-03-07T10:35:21.048Z,70.44
2023-03-07T10:40:28.108Z,73.24
2023-03-07T10:45:21.819Z,70.66
2023-03-07T10:50:30.648Z,75.08
2023-03-07T10:55:41.169Z,76.40
2023-03-07T11:00:34.747Z,78.96
2023-03-07T11:05:33.240Z,76.25
2023-03-07T11:10:36.854Z,73.97
2023-03-07T11:15:30.274Z,76.37
2023-03-07T11:20:30.242Z,76.79
2023-03-07T11:25:26.706Z,72.99
2023-03-07T11:30:26.281Z,75.04
2023-03-07T11:35:24.609Z,74.98
2023-03-07T11:40:26.081Z,69.48
2023-03-07T11:45:36.630Z,78.18
2023-03-07T11:50:33.204Z,72.07
2023-03-07T11:55:36.288Z,70.00
2023-03-07T12:00:44.432Z,74.22
2023-03-07T12:06:02.648Z,70.61
2023-03-07T12:11:16.612Z,68.55
2023-03-07T12:16:27.416Z,71.25
2023-03-07T12:21:43.480Z,73.39
2023-03-07T12:26:49.816Z,71.60
2023-03-07T12:31:50.325Z,67.69
2023-03-07T12:36:49.977Z,70.60
2023-03-07T12:41:58.595Z,68.78
2023-03-07T12:47:02.332Z,67.23
2023-03-07T12:52:01.079Z,68.08
2023-03-07T12:56:58.743Z,66.99
2023-03-07T13:02:03.315Z,69.67
2023-03-07T13:07:07.072Z,70.57
2023-03-07T13:12:36.040Z,68.60
2023-03-07T13:18:00.667Z,69.35
2023-03-07T13:23:22.849Z,68.34
2023-03-07T13:28:51.464Z,69.13
2023-03-07T13:33:48.170Z,68.36
2023-03-07T13:38:45.039Z,68.05
2023-03-07T13:44:03.327Z,67.25
2023-03-07T13:49:05.070Z,69.69
2023-03-07T13:54:04.329Z,69.49
2023-03-07T13:59:02.336Z,73.59
2023-03-07T14:04:03.494Z,66.82
2023-03-07T14:09:02.699Z,68.67
2023-03-07T14:14:31.284Z,70.21
2023-03-07T14:19:48.077Z,71.78
2023-03-07T14:25:34.845Z,69.69
2023-03-07T14:30:33.060Z,76.01
2023-03-07T14:35:40.267Z,72.05
2023-03-07T14:40:47.946Z,75.37
2023-03-07T14:45:50.500Z,73.40
2023-03-07T14:50:45.902Z,75.61
2023-03-07T14:55:43.002Z,73.55
2023-03-07T15:00:36.386Z,76.71
2023-03-07T15:05:34.536Z,75.31
2023-03-07T15:10:36.517Z,74.85
2023-03-07T15:15:34.894Z,75.86
2023-03-07T15:20:31.439Z,79.29
2023-03-07T15:25:26.197Z,76.24
2023-03-07T15:30:31.004Z,77.91
2023-03-07T15:35:24.409Z,79.63
2023-03-07T15:40:30.295Z,82.44
2023-03-07T15:45:33.093Z,78.09
2023-03-07T15:50:29.707Z,78.90
2023-03-07T15:55:28.032Z,79.39
2023-03-07T16:00:27.869Z,82.71
2023-03-07T16:05:38.981Z,79.55
2023-03-07T16:10:33.934Z,79.31
2023-03-07T16:15:28.284Z,81.33
2023-03-07T16:20:26.364Z,80.46
2023-03-07T16:25:20.649Z,78.53
2023-03-07T16:30:19.583Z,80.74
2023-03-07T16:35:18.535Z,84.54
2023-03-07T16:40:14.806Z,86.32
2023-03-07T16:45:21.155Z,84.97
2023-03-07T16:50:16.897Z,85.03
2023-03-07T16:55:14.415Z,87.38
2023-03-07T17:00:13.817Z,86.43
2023-03-07T17:05:18.181Z,88.23
2023-03-07T17:10:16.266Z,88.54
2023-03-07T17:15:15.183Z,87.34
2023-03-07T17:20:14.578Z,85.56
2023-03-07T17:25:09.086Z,87.32
2023-03-07T17:30:02.454Z,89.28
2023-03-07T17:34:55.857Z,86.60
2023-03-07T17:39:50.559Z,90.01
2023-03-07T17:44:43.852Z,88.00
2023-03-07T17:49:39.550Z,87.32
2023-03-07T17:54:33.867Z,86.81
2023-03-07T17:59:28.565Z,87.14
2023-03-07T18:04:21.832Z,88.93
2023-03-07T18:09:18.716Z,86.42
2023-03-07T18:14:12.680Z,88.25
2023-03-07T18:19:14.230Z,87.18
2023-03-07T18:24:20.496Z,87.87
2023-03-07T18:29:24.045Z,86.07
2023-03-07T18:34:18.848Z,85.49
2023-03-07T18:39:12.380Z,86.22
2023-03-07T18:44:05.833Z,87.00
2023-03-07T18:49:01.317Z,88.54
2023-03-07T18:53:59.248Z,85.62
2023-03-07T18:58:56.087Z,86.27
2023-03-07T19:03:51.996Z,86.90
2023-03-07T19:08:45.485Z,86.23
2023-03-07T19:13:41.266Z,89.20
2023-03-07T19:18:37.204Z,87.45
2023-03-07T19:23:30.452Z,89.53
2023-03-07T19:28:23.797Z,90.25
2023-03-07T19:33:18.498Z,88.28
2023-03-07T19:38:11.751Z,88.79
2023-03-07T19:43:06.761Z,88.44
2023-03-07T19:48:00.169Z,89.57
2023-03-07T19:52:57.378Z,89.42
2023-03-07T19:57:50.694Z,89.75
2023-03-07T20:02:44.012Z,87.86
2023-03-07T20:07:37.730Z,87.03
2023-03-07T20:12:34.717Z,87.15
2023-03-07T20:17:28.082Z,90.85
2023-03-07T20:22:23.436Z,89.47
2023-03-07T20:27:20.456Z,94.62
2023-03-07T20:32:15.155Z,92.70
2023-03-07T20:37:08.428Z,90.96
2023-03-07T20:42:01.654Z,91.67
2023-03-07T20:46:55.694Z,90.59
2023-03-07T20:51:50.481Z,91.62
2023-03-07T20:56:44.846Z,92.76
2023-03-07T21:01:39.028Z,91.09
2023-03-07T21:06:32.431Z,92.73
2023-03-07T21:11:31.288Z,91.13
2023-03-07T21:16:27.241Z,94.80
2023-03-07T21:21:22.988Z,92.92
2023-03-07T21:26:20.079Z,93.71
2023-03-07T21:31:21.240Z,94.46
2023-03-07T21:36:16.181Z,91.90
2023-03-07T21:41:09.661Z,91.59
2023-03-07T21:46:06.053Z,89.74
2023-03-07T21:51:02.931Z,91.99
2023-03-07T21:56:01.604Z,91.18
2023-03-07T22:00:57.991Z,91.97
2023-03-07T22:05:51.765Z,94.29
2023-03-07T22:10:57.320Z,92.98
2023-03-07T22:15:50.654Z,94.09
2023-03-07T22:20:44.038Z,93.73
2023-03-07T22:25:37.336Z,94.51
2023-03-07T22:30:32.167Z,96.62
2023-03-07T22:35:25.564Z,99.46
2023-03-07T22:40:19.867Z,98.53
2023-03-07T22:45:14.207Z,99.35
2023-03-07T22:50:10.683Z,100.00
2023-03-07T22:55:04.314Z,100.00
2023-03-07T22:59:57.752Z,100.00
2023-03-07T23:04:53.169Z,100.00
2023-03-07T23:09:47.963Z,100.00
2023-03-07T23:14:41.320Z,100.00
2023-03-07T23:19:34.660Z,100.00
2023-03-07T23:24:28.064Z,100.00
2023-03-07T23:29:22.804Z,100.00
2023-03-07T23:34:18.881Z,100.00
2023-03-07T23:39:12.295Z,99.54
2023-03-07T23:44:06.246Z,100.00
2023-03-07T23:49:01.224Z,100.00
2023-03-07T23:53:54.534Z,100.00
2023-03-07T23:58:50.956Z,100.00
